Time;durP1;ratioP1;P1;durP2;ratioP2;P2;SDS_P1;SDS_P2;PMS_P1;PMS_P2;Temp;Humidity;BMP_temperature;BMP_pressure;BME280_temperature;BME280_humidity;BME280_pressure;Samples;Min_cycle;Max_cycle;Signal;HPM_P1;HPM_P2
2022/01/05 00:00:47;;;;;;;3.85;1.00;;;;;;;;;;5095447;28;20024;-59
2022/01/05 00:03:12;;;;;;;1.83;1.00;;;;;;;;;;5095317;28;20016;-58
2022/01/05 00:05:38;;;;;;;3.85;1.45;;;;;;;;;;5095285;28;20351;-58
2022/01/05 00:08:04;;;;;;;3.25;1.00;;;;;;;;;;5095350;28;20024;-59
2022/01/05 00:10:30;;;;;;;3.72;1.30;;;;;;;;;;5095012;28;20107;-59
2022/01/05 00:12:55;;;;;;;7.95;1.50;;;;;;;;;;5095002;28;20028;-57
2022/01/05 00:15:22;;;;;;;2.88;0.98;;;;;;;;;;5094950;28;20071;-59
2022/01/05 00:17:47;;;;;;;4.80;0.95;;;;;;;;;;5094877;28;20099;-60
2022/01/05 00:20:12;;;;;;;8.10;1.70;;;;;;;;;;5094820;28;20124;-56
2022/01/05 00:22:38;;;;;;;3.30;1.27;;;;;;;;;;5094890;28;20069;-57
2022/01/05 00:25:05;;;;;;;6.93;1.95;;;;;;;;;;5094897;28;20069;-57
2022/01/05 00:27:31;;;;;;;6.18;2.13;;;;;;;;;;5094542;28;20043;-62
2022/01/05 00:29:58;;;;;;;6.90;2.30;;;;;;;;;;5094838;28;20102;-58
2022/01/05 00:32:23;;;;;;;5.50;2.00;;;;;;;;;;5094526;28;20034;-59
2022/01/05 00:34:49;;;;;;;6.68;1.80;;;;;;;;;;5094370;28;20044;-57
2022/01/05 00:37:14;;;;;;;4.45;1.42;;;;;;;;;;5094452;28;20023;-59
2022/01/05 00:39:40;;;;;;;3.97;1.35;;;;;;;;;;5094654;28;20055;-57
2022/01/05 00:42:06;;;;;;;3.80;1.52;;;;;;;;;;5094472;28;20031;-57
2022/01/05 00:44:31;;;;;;;4.63;1.40;;;;;;;;;;5094453;28;20035;-59
2022/01/05 00:46:57;;;;;;;2.78;1.40;;;;;;;;;;5094490;28;20024;-57
2022/01/05 00:49:22;;;;;;;8.95;1.50;;;;;;;;;;5094103;28;20101;-62
2022/01/05 00:51:48;;;;;;;4.30;1.98;;;;;;;;;;5091411;28;20062;-60
2022/01/05 00:54:13;;;;;;;3.65;1.42;;;;;;;;;;5071926;28;20071;-56
2022/01/05 00:56:39;;;;;;;6.82;1.40;;;;;;;;;;5086282;28;20020;-62
2022/01/05 00:59:04;;;;;;;5.60;1.48;;;;;;;;;;5094129;28;20031;-57
2022/01/05 01:01:30;;;;;;;4.28;1.52;;;;;;;;;;5094039;28;20042;-57
2022/01/05 01:03:55;;;;;;;6.13;1.80;;;;;;;;;;5094041;28;20023;-56
2022/01/05 01:06:20;;;;;;;8.13;2.20;;;;;;;;;;5092924;28;20107;-57
2022/01/05 01:08:47;;;;;;;4.32;1.83;;;;;;;;;;5093967;28;20020;-58
2022/01/05 01:11:12;;;;;;;6.28;1.73;;;;;;;;;;5093745;28;20122;-59
2022/01/05 01:13:38;;;;;;;4.15;1.60;;;;;;;;;;5093873;28;20442;-57
2022/01/05 01:16:03;;;;;;;3.05;1.30;;;;;;;;;;5080237;28;20645;-59
2022/01/05 01:18:29;;;;;;;4.85;2.13;;;;;;;;;;5093846;28;20024;-61
2022/01/05 01:20:54;;;;;;;2.25;1.20;;;;;;;;;;5093581;28;20032;-64
2022/01/05 01:23:22;;;;;;;5.22;1.40;;;;;;;;;;5093847;28;20028;-65
2022/01/05 01:25:49;;;;;;;7.10;1.70;;;;;;;;;;5093355;28;20036;-65
2022/01/05 01:28:15;;;;;;;4.03;1.42;;;;;;;;;;5093796;28;20035;-60
2022/01/05 01:30:40;;;;;;;5.32;1.60;;;;;;;;;;5079857;28;20024;-60
2022/01/05 01:33:07;;;;;;;4.35;1.50;;;;;;;;;;5093485;28;20028;-61
2022/01/05 01:35:32;;;;;;;5.88;1.70;;;;;;;;;;5093112;28;20406;-65
2022/01/05 01:37:58;;;;;;;7.78;2.85;;;;;;;;;;5093213;28;20020;-62
2022/01/05 01:40:24;;;;;;;5.72;1.23;;;;;;;;;;5093441;28;20024;-63
2022/01/05 01:42:49;;;;;;;3.80;1.55;;;;;;;;;;5092602;28;20026;-62
2022/01/05 01:45:15;;;;;;;3.42;1.60;;;;;;;;;;5093261;28;20394;-60
2022/01/05 01:47:41;;;;;;;4.32;1.63;;;;;;;;;;5075118;28;20358;-60
2022/01/05 01:50:10;;;;;;;3.33;1.70;;;;;;;;;;5093208;28;20020;-62
2022/01/05 01:52:35;;;;;;;5.30;2.13;;;;;;;;;;5092890;28;20049;-61
2022/01/05 01:55:02;;;;;;;3.63;2.00;;;;;;;;;;5093232;28;20024;-61
2022/01/05 01:57:29;;;;;;;3.97;1.55;;;;;;;;;;5093100;28;20067;-61
2022/01/05 01:59:57;;;;;;;7.43;2.33;;;;;;;;;;5093070;28;20056;-58
2022/01/05 02:02:24;;;;;;;6.35;1.90;;;;;;;;;;5093023;28;20523;-59
2022/01/05 02:04:49;;;;;;;3.55;1.92;;;;;;;;;;5092768;28;20036;-59
2022/01/05 02:07:15;;;;;;;5.45;2.38;;;;;;;;;;5092739;28;20076;-60
2022/01/05 02:09:40;;;;;;;6.88;2.55;;;;;;;;;;5093069;28;20077;-58
2022/01/05 02:12:06;;;;;;;6.63;2.88;;;;;;;;;;5092953;28;20104;-59
2022/01/05 02:14:32;;;;;;;6.28;2.20;;;;;;;;;;5092890;28;20027;-60
2022/01/05 02:17:02;;;;;;;6.88;2.13;;;;;;;;;;5074210;28;20020;-60
2022/01/05 02:19:28;;;;;;;10.00;2.70;;;;;;;;;;5092853;28;20028;-61
2022/01/05 02:21:53;;;;;;;6.78;1.95;;;;;;;;;;5087614;28;20020;-60
2022/01/05 02:24:18;;;;;;;6.85;2.05;;;;;;;;;;5083793;28;20024;-60
2022/01/05 02:26:44;;;;;;;5.85;2.08;;;;;;;;;;5092528;28;20449;-59
2022/01/05 02:29:09;;;;;;;11.68;2.30;;;;;;;;;;5092768;28;20449;-61
2022/01/05 02:31:35;;;;;;;6.57;2.22;;;;;;;;;;5092581;28;20047;-57
2022/01/05 02:34:01;;;;;;;7.97;2.20;;;;;;;;;;5092364;28;20024;-59
2022/01/05 02:36:26;;;;;;;8.13;3.22;;;;;;;;;;5088073;28;20049;-59
2022/01/05 02:38:55;;;;;;;10.15;2.60;;;;;;;;;;5091631;28;20040;-59
2022/01/05 02:41:20;;;;;;;6.00;2.63;;;;;;;;;;5088155;28;20021;-59
2022/01/05 02:43:46;;;;;;;6.13;2.35;;;;;;;;;;5072343;28;20028;-59
2022/01/05 02:46:17;;;;;;;8.07;2.80;;;;;;;;;;5074554;28;20043;-64
2022/01/05 02:48:46;;;;;;;6.28;2.22;;;;;;;;;;5092739;28;20024;-64
2022/01/05 02:51:12;;;;;;;7.18;2.47;;;;;;;;;;5092287;28;20067;-64
2022/01/05 02:53:38;;;;;;;11.98;2.97;;;;;;;;;;5092506;28;20047;-64
2022/01/05 02:56:04;;;;;;;7.65;2.30;;;;;;;;;;5092347;28;20028;-63
2022/01/05 02:58:30;;;;;;;5.70;2.35;;;;;;;;;;5092351;28;20051;-61
2022/01/05 03:00:56;;;;;;;6.45;2.60;;;;;;;;;;5092270;28;20059;-63
2022/01/05 03:03:21;;;;;;;6.13;2.42;;;;;;;;;;5092337;28;20020;-61
2022/01/05 03:05:47;;;;;;;10.32;2.80;;;;;;;;;;5092024;28;20458;-62
2022/01/05 03:08:12;;;;;;;7.40;2.78;;;;;;;;;;5092574;28;20031;-64
2022/01/05 03:10:37;;;;;;;7.50;2.97;;;;;;;;;;5092209;28;20389;-61
2022/01/05 03:13:03;;;;;;;10.13;2.83;;;;;;;;;;5092322;28;20023;-60
2022/01/05 03:15:28;;;;;;;7.15;3.05;;;;;;;;;;5092147;28;20028;-59
2022/01/05 03:17:54;;;;;;;10.13;2.90;;;;;;;;;;5092344;28;20026;-59
2022/01/05 03:20:20;;;;;;;9.32;2.83;;;;;;;;;;5085400;28;20111;-60
2022/01/05 03:22:46;;;;;;;8.05;3.08;;;;;;;;;;5083722;28;20022;-60
2022/01/05 03:25:16;;;;;;;10.32;2.95;;;;;;;;;;5086137;28;20036;-59
2022/01/05 03:27:51;;;;;;;9.65;3.30;;;;;;;;;;5084542;28;20024;-60
2022/01/05 03:30:19;;;;;;;9.93;3.17;;;;;;;;;;5095857;28;20469;-59
2022/01/05 03:33:08;;;;;;;8.38;3.08;;;;;;;;;;5095747;28;20028;-63
2022/01/05 03:35:34;;;;;;;9.30;2.88;;;;;;;;;;5094605;28;20055;-61
2022/01/05 03:38:00;;;;;;;10.05;3.40;;;;;;;;;;5094209;28;20028;-63
2022/01/05 03:40:26;;;;;;;9.88;2.90;;;;;;;;;;5095605;28;20028;-63
2022/01/05 03:42:52;;;;;;;10.35;3.10;;;;;;;;;;5095395;28;20377;-64
2022/01/05 03:45:17;;;;;;;9.63;3.20;;;;;;;;;;5095320;28;20024;-65
2022/01/05 03:47:43;;;;;;;6.57;3.20;;;;;;;;;;5095495;28;20024;-62
2022/01/05 03:50:09;;;;;;;7.97;3.15;;;;;;;;;;5095114;28;20016;-58
2022/01/05 03:52:35;;;;;;;9.32;3.30;;;;;;;;;;5095403;28;20016;-60
2022/01/05 03:55:03;;;;;;;7.80;3.05;;;;;;;;;;5095480;28;20030;-58
2022/01/05 03:57:29;;;;;;;9.52;3.40;;;;;;;;;;5095085;28;20020;-60
2022/01/05 03:59:54;;;;;;;9.73;2.85;;;;;;;;;;5095124;28;20023;-59
2022/01/05 04:02:20;;;;;;;10.57;2.97;;;;;;;;;;5095289;28;20454;-60
2022/01/05 04:04:46;;;;;;;8.68;3.20;;;;;;;;;;5095065;28;20458;-59
2022/01/05 04:07:12;;;;;;;10.20;3.65;;;;;;;;;;5094777;28;20026;-59
2022/01/05 04:09:38;;;;;;;9.55;3.75;;;;;;;;;;5076903;28;20036;-59
2022/01/05 04:12:04;;;;;;;8.55;3.70;;;;;;;;;;5094936;28;20024;-60
2022/01/05 04:14:29;;;;;;;9.43;3.17;;;;;;;;;;5094945;28;20038;-58
2022/01/05 04:16:55;;;;;;;11.50;3.42;;;;;;;;;;5094635;28;20032;-59
2022/01/05 04:19:20;;;;;;;9.45;3.50;;;;;;;;;;5094668;28;20020;-60
2022/01/05 04:21:45;;;;;;;14.25;3.22;;;;;;;;;;5094886;28;20032;-60
2022/01/05 04:24:11;;;;;;;9.45;2.83;;;;;;;;;;5094731;28;20462;-59
2022/01/05 04:26:37;;;;;;;9.27;3.00;;;;;;;;;;5094756;28;20031;-62
2022/01/05 04:29:02;;;;;;;7.97;3.17;;;;;;;;;;5094806;28;20021;-59
2022/01/05 04:31:28;;;;;;;8.48;3.00;;;;;;;;;;5084742;28;20123;-61
2022/01/05 04:33:53;;;;;;;6.85;2.85;;;;;;;;;;5091787;28;20113;-59
2022/01/05 04:36:19;;;;;;;7.03;2.80;;;;;;;;;;5094543;28;20106;-59
2022/01/05 04:38:44;;;;;;;9.40;3.72;;;;;;;;;;5075491;28;20036;-63
2022/01/05 04:41:10;;;;;;;7.40;2.90;;;;;;;;;;5083055;28;20397;-60
2022/01/05 04:43:35;;;;;;;10.57;3.10;;;;;;;;;;5103046;28;20044;-55
2022/01/05 04:46:01;;;;;;;9.65;3.35;;;;;;;;;;5094397;28;20071;-60
2022/01/05 04:48:27;;;;;;;12.30;2.80;;;;;;;;;;5089981;28;20028;-57
2022/01/05 04:50:53;;;;;;;7.57;2.80;;;;;;;;;;5086246;28;20115;-60
2022/01/05 04:53:18;;;;;;;4.70;1.95;;;;;;;;;;5089238;28;20108;-57
2022/01/05 04:55:44;;;;;;;8.73;2.70;;;;;;;;;;5078321;28;20064;-64
2022/01/05 04:58:10;;;;;;;5.97;2.25;;;;;;;;;;5089662;28;20039;-62
2022/01/05 05:00:35;;;;;;;9.90;2.38;;;;;;;;;;5088411;28;20402;-63
2022/01/05 05:03:01;;;;;;;6.47;2.65;;;;;;;;;;5082035;28;20028;-62
2022/01/05 05:05:27;;;;;;;11.23;2.58;;;;;;;;;;5093438;28;20110;-57
2022/01/05 05:07:52;;;;;;;7.07;1.92;;;;;;;;;;5092891;28;20027;-58
2022/01/05 05:10:18;;;;;;;6.78;2.10;;;;;;;;;;5088242;28;20052;-59
2022/01/05 05:12:43;;;;;;;9.02;2.20;;;;;;;;;;5082956;28;20048;-59
2022/01/05 05:15:09;;;;;;;8.75;2.70;;;;;;;;;;5082375;28;20029;-58
2022/01/05 05:17:34;;;;;;;6.38;2.13;;;;;;;;;;5082237;28;20043;-59
2022/01/05 05:20:00;;;;;;;13.05;3.35;;;;;;;;;;5087701;28;20028;-59
2022/01/05 05:22:25;;;;;;;8.70;2.25;;;;;;;;;;5082060;28;20371;-61
2022/01/05 05:24:51;;;;;;;7.85;2.28;;;;;;;;;;5089087;28;20040;-61
2022/01/05 05:27:16;;;;;;;8.63;2.53;;;;;;;;;;5093430;28;20079;-59
2022/01/05 05:29:41;;;;;;;8.10;2.80;;;;;;;;;;5089115;28;20034;-56
2022/01/05 05:32:08;;;;;;;11.20;2.38;;;;;;;;;;5091856;28;20504;-59
2022/01/05 05:34:33;;;;;;;7.60;1.90;;;;;;;;;;5090373;28;20056;-59
2022/01/05 05:36:59;;;;;;;8.68;2.55;;;;;;;;;;5087292;28;20024;-63
2022/01/05 05:39:24;;;;;;;7.47;2.63;;;;;;;;;;5092970;28;20046;-60
2022/01/05 05:41:50;;;;;;;7.30;2.20;;;;;;;;;;5093314;28;20024;-59
2022/01/05 05:44:15;;;;;;;9.05;2.35;;;;;;;;;;5093276;28;20016;-58
2022/01/05 05:46:41;;;;;;;8.57;1.73;;;;;;;;;;5093203;28;20114;-60
2022/01/05 05:49:06;;;;;;;6.57;2.00;;;;;;;;;;5081763;28;20097;-60
2022/01/05 05:51:32;;;;;;;9.82;2.10;;;;;;;;;;5092558;28;20020;-58
2022/01/05 05:53:57;;;;;;;5.45;2.25;;;;;;;;;;5092342;28;20513;-60
2022/01/05 05:56:22;;;;;;;9.35;2.38;;;;;;;;;;5092493;28;20180;-62
2022/01/05 05:58:48;;;;;;;7.72;1.90;;;;;;;;;;5092186;28;20084;-58
2022/01/05 06:01:13;;;;;;;5.32;2.00;;;;;;;;;;5081324;28;20032;-59
2022/01/05 06:03:39;;;;;;;6.72;1.73;;;;;;;;;;5093080;28;20111;-59
2022/01/05 06:06:04;;;;;;;6.95;1.90;;;;;;;;;;5091188;28;20391;-59
2022/01/05 06:08:30;;;;;;;5.82;1.75;;;;;;;;;;5084058;28;20032;-58
2022/01/05 06:10:55;;;;;;;8.73;2.33;;;;;;;;;;5088144;28;20032;-56
2022/01/05 06:13:21;;;;;;;8.38;2.00;;;;;;;;;;5092959;28;20032;-60
2022/01/05 06:15:46;;;;;;;13.60;2.25;;;;;;;;;;5087105;28;20029;-59
2022/01/05 06:18:11;;;;;;;7.07;2.30;;;;;;;;;;5070941;28;20031;-59
2022/01/05 06:20:37;;;;;;;9.27;2.22;;;;;;;;;;5092856;28;20424;-58
2022/01/05 06:23:02;;;;;;;5.68;1.85;;;;;;;;;;5092478;28;20487;-58
2022/01/05 06:25:28;;;;;;;2.90;1.17;;;;;;;;;;5091489;28;20024;-59
2022/01/05 06:27:53;;;;;;;4.05;1.83;;;;;;;;;;5074912;28;20032;-56
2022/01/05 06:30:19;;;;;;;9.45;2.45;;;;;;;;;;5082869;28;20107;-59
2022/01/05 06:32:46;;;;;;;7.28;2.15;;;;;;;;;;5092406;28;20023;-56
2022/01/05 06:35:13;;;;;;;7.38;2.25;;;;;;;;;;5092269;28;20043;-60
2022/01/05 06:37:38;;;;;;;9.15;2.35;;;;;;;;;;5088307;28;20040;-62
2022/01/05 06:40:04;;;;;;;10.20;2.13;;;;;;;;;;5090088;28;20091;-55
2022/01/05 06:42:30;;;;;;;9.15;2.60;;;;;;;;;;5092176;28;20028;-56
2022/01/05 06:44:55;;;;;;;7.25;1.90;;;;;;;;;;5092346;28;20032;-57
2022/01/05 06:47:20;;;;;;;10.25;2.10;;;;;;;;;;5092421;28;20043;-57
2022/01/05 06:49:46;;;;;;;8.85;1.95;;;;;;;;;;5088142;28;20031;-59
2022/01/05 06:52:12;;;;;;;8.80;2.28;;;;;;;;;;5091917;28;20293;-60
2022/01/05 06:54:39;;;;;;;9.98;1.92;;;;;;;;;;5092300;28;20465;-57
2022/01/05 06:57:06;;;;;;;9.40;2.35;;;;;;;;;;5087923;28;20039;-58
2022/01/05 06:59:31;;;;;;;22.52;3.78;;;;;;;;;;5087183;28;20024;-59
2022/01/05 07:01:57;;;;;;;18.60;4.25;;;;;;;;;;5072425;28;20482;-56
2022/01/05 07:04:22;;;;;;;13.75;4.25;;;;;;;;;;5075893;28;20381;-59
2022/01/05 07:06:48;;;;;;;10.13;2.90;;;;;;;;;;5091635;28;20034;-59
2022/01/05 07:09:13;;;;;;;7.15;2.30;;;;;;;;;;5069423;28;20059;-60
2022/01/05 07:11:40;;;;;;;7.72;1.88;;;;;;;;;;5096011;28;20381;-59
2022/01/05 07:14:05;;;;;;;6.72;2.40;;;;;;;;;;5096232;28;20111;-59
2022/01/05 07:16:31;;;;;;;6.45;2.10;;;;;;;;;;5095886;28;20099;-60
2022/01/05 07:18:56;;;;;;;5.70;1.73;;;;;;;;;;5088697;28;20040;-58
2022/01/05 07:21:22;;;;;;;8.07;2.25;;;;;;;;;;5093226;28;20031;-59
2022/01/05 07:23:47;;;;;;;8.95;2.00;;;;;;;;;;5094208;28;20027;-59
2022/01/05 07:26:13;;;;;;;12.73;2.40;;;;;;;;;;5095087;28;20391;-58
2022/01/05 07:28:38;;;;;;;11.13;2.35;;;;;;;;;;5095867;28;20466;-58
2022/01/05 07:31:04;;;;;;;8.15;2.35;;;;;;;;;;5095623;28;20085;-59
2022/01/05 07:33:29;;;;;;;8.23;2.35;;;;;;;;;;5086025;28;20107;-61
2022/01/05 07:35:55;;;;;;;13.15;2.55;;;;;;;;;;5092021;28;20055;-59
2022/01/05 07:38:20;;;;;;;12.93;2.58;;;;;;;;;;5095406;28;20474;-56
2022/01/05 07:40:46;;;;;;;8.75;2.50;;;;;;;;;;5092696;28;20111;-60
2022/01/05 07:43:11;;;;;;;5.63;2.13;;;;;;;;;;5079370;28;20119;-59
2022/01/05 07:45:37;;;;;;;12.80;2.40;;;;;;;;;;5102481;28;20028;-61
2022/01/05 07:48:04;;;;;;;10.13;2.53;;;;;;;;;;5083787;28;20024;-57
2022/01/05 07:50:29;;;;;;;6.93;2.47;;;;;;;;;;5092029;28;20047;-57
2022/01/05 07:52:55;;;;;;;6.85;1.98;;;;;;;;;;5088451;28;20119;-60
2022/01/05 07:55:20;;;;;;;4.38;2.25;;;;;;;;;;5083747;28;20052;-60
2022/01/05 07:57:46;;;;;;;9.23;2.47;;;;;;;;;;5082926;28;20032;-57
2022/01/05 08:00:12;;;;;;;9.00;2.42;;;;;;;;;;5088754;28;20024;-56
2022/01/05 08:02:38;;;;;;;10.05;2.78;;;;;;;;;;5094819;28;20024;-59
2022/01/05 08:05:04;;;;;;;8.05;2.40;;;;;;;;;;5094698;28;20020;-57
2022/01/05 08:07:30;;;;;;;13.85;3.67;;;;;;;;;;5084940;28;20037;-59
2022/01/05 08:09:55;;;;;;;7.50;2.30;;;;;;;;;;5094676;28;20039;-59
2022/01/05 08:12:20;;;;;;;6.38;1.83;;;;;;;;;;5092698;28;20054;-58
2022/01/05 08:14:46;;;;;;;9.82;2.47;;;;;;;;;;5092066;28;20020;-57
2022/01/05 08:17:11;;;;;;;8.85;2.10;;;;;;;;;;5076116;28;20036;-59
2022/01/05 08:19:37;;;;;;;8.18;1.90;;;;;;;;;;5094364;28;20032;-59
2022/01/05 08:22:02;;;;;;;7.95;2.50;;;;;;;;;;5094355;28;20084;-58
2022/01/05 08:24:28;;;;;;;7.55;1.92;;;;;;;;;;5093736;28;20074;-59
2022/01/05 08:26:53;;;;;;;6.70;2.75;;;;;;;;;;5088007;28;20036;-59
2022/01/05 08:29:19;;;;;;;6.07;2.00;;;;;;;;;;5093285;28;20389;-59
2022/01/05 08:31:45;;;;;;;9.77;2.42;;;;;;;;;;5090448;28;20020;-59
2022/01/05 08:34:11;;;;;;;12.68;2.00;;;;;;;;;;5092231;28;20478;-57
2022/01/05 08:36:37;;;;;;;11.25;2.22;;;;;;;;;;5093719;28;20043;-59
2022/01/05 08:39:03;;;;;;;13.88;2.10;;;;;;;;;;5088982;28;20024;-59
2022/01/05 08:41:29;;;;;;;4.93;1.55;;;;;;;;;;5073175;28;20028;-62
2022/01/05 08:43:54;;;;;;;8.27;2.00;;;;;;;;;;5090404;28;20024;-55
2022/01/05 08:46:20;;;;;;;9.32;2.08;;;;;;;;;;5092513;28;20146;-60
2022/01/05 08:48:46;;;;;;;8.10;2.08;;;;;;;;;;5093873;28;20440;-60
2022/01/05 08:51:11;;;;;;;8.75;2.30;;;;;;;;;;5094033;28;20103;-61
2022/01/05 08:53:37;;;;;;;11.30;3.47;;;;;;;;;;5093424;28;20454;-59
2022/01/05 08:56:03;;;;;;;5.22;1.63;;;;;;;;;;5093747;28;20093;-60
2022/01/05 08:58:28;;;;;;;7.47;1.98;;;;;;;;;;5094118;28;20026;-60
2022/01/05 09:00:53;;;;;;;7.63;2.00;;;;;;;;;;5094131;28;20444;-64
2022/01/05 09:03:19;;;;;;;6.63;1.65;;;;;;;;;;5093804;28;20044;-60
2022/01/05 09:05:45;;;;;;;8.73;2.40;;;;;;;;;;5091981;28;20081;-63
2022/01/05 09:08:11;;;;;;;7.43;2.28;;;;;;;;;;5093786;28;20071;-63
2022/01/05 09:10:37;;;;;;;5.45;1.70;;;;;;;;;;5093868;28;20481;-61
2022/01/05 09:13:02;;;;;;;5.93;1.67;;;;;;;;;;5093848;28;20031;-60
2022/01/05 09:15:29;;;;;;;5.60;1.77;;;;;;;;;;5093757;28;20028;-62
2022/01/05 09:17:55;;;;;;;13.00;2.13;;;;;;;;;;5093772;28;20551;-62
2022/01/05 09:20:21;;;;;;;12.00;2.45;;;;;;;;;;5093792;28;20099;-62
2022/01/05 09:22:46;;;;;;;10.35;2.33;;;;;;;;;;5093627;28;20028;-62
2022/01/05 09:25:14;;;;;;;10.13;1.83;;;;;;;;;;5093256;28;20035;-58
2022/01/05 09:27:40;;;;;;;8.68;1.88;;;;;;;;;;5093009;28;20544;-62
2022/01/05 09:30:08;;;;;;;7.72;2.55;;;;;;;;;;5093681;28;20058;-57
2022/01/05 09:32:34;;;;;;;5.00;1.60;;;;;;;;;;5093334;28;20046;-60
2022/01/05 09:35:00;;;;;;;6.57;1.58;;;;;;;;;;5093364;28;20040;-58
2022/01/05 09:37:31;;;;;;;5.47;1.83;;;;;;;;;;5092882;28;20117;-58
2022/01/05 09:42:41;;;;;;;5.90;1.60;;;;;;;;;;5093570;28;20026;-58
2022/01/05 09:45:28;;;;;;;8.68;2.00;;;;;;;;;;5093232;28;20473;-58
2022/01/05 09:47:53;;;;;;;8.70;1.65;;;;;;;;;;5093473;28;20081;-62
2022/01/05 09:50:21;;;;;;;5.82;1.80;;;;;;;;;;5093151;28;20441;-59
2022/01/05 09:52:47;;;;;;;7.05;1.60;;;;;;;;;;5075062;28;20055;-62
2022/01/05 09:55:14;;;;;;;10.07;2.08;;;;;;;;;;5092974;28;20446;-60
2022/01/05 09:57:42;;;;;;;9.02;1.83;;;;;;;;;;5093525;28;20052;-65
2022/01/05 10:00:10;;;;;;;5.15;1.25;;;;;;;;;;5093096;28;20038;-63
2022/01/05 10:02:35;;;;;;;6.85;1.48;;;;;;;;;;5093010;28;20024;-58
2022/01/05 10:05:02;;;;;;;5.53;1.75;;;;;;;;;;5092803;28;20020;-58
2022/01/05 10:07:27;;;;;;;6.20;1.80;;;;;;;;;;5092762;28;20478;-59
2022/01/05 10:09:53;;;;;;;10.13;1.80;;;;;;;;;;5092941;28;20035;-59
2022/01/05 10:12:20;;;;;;;4.63;1.70;;;;;;;;;;5093102;28;20020;-59
2022/01/05 10:14:48;;;;;;;6.97;1.70;;;;;;;;;;5093061;28;20032;-61
2022/01/05 10:17:24;;;;;;;7.63;1.80;;;;;;;;;;5092826;28;20082;-54
2022/01/05 10:20:07;;;;;;;8.20;1.92;;;;;;;;;;5092730;28;20523;-56
2022/01/05 10:22:44;;;;;;;9.65;1.73;;;;;;;;;;5092913;28;20028;-59
2022/01/05 10:25:36;;;;;;;7.47;2.30;;;;;;;;;;5092704;28;20028;-59
2022/01/05 10:28:03;;;;;;;6.07;1.70;;;;;;;;;;5090540;28;20135;-59
2022/01/05 10:30:41;;;;;;;11.30;2.13;;;;;;;;;;5092751;28;20136;-61
2022/01/05 10:33:08;;;;;;;10.77;3.05;;;;;;;;;;5092586;28;20077;-62
2022/01/05 10:35:34;;;;;;;9.80;1.95;;;;;;;;;;5092434;28;20044;-61
2022/01/05 10:38:09;;;;;;;7.88;1.95;;;;;;;;;;5092373;28;20016;-65
2022/01/05 10:40:36;;;;;;;8.02;1.50;;;;;;;;;;5092739;28;20032;-60
2022/01/05 10:43:14;;;;;;;15.40;2.00;;;;;;;;;;5092512;28;20591;-58
2022/01/05 10:45:44;;;;;;;8.50;1.70;;;;;;;;;;5092581;28;20035;-60
2022/01/05 10:48:14;;;;;;;13.15;2.03;;;;;;;;;;5074188;28;20039;-55
2022/01/05 10:50:41;;;;;;;;;;;;;;;;;;5092816;28;20032;-58
2022/01/05 10:53:10;;;;;;;5.60;1.80;;;;;;;;;;5092599;28;19938;-57
2022/01/05 10:55:41;;;;;;;7.45;1.70;;;;;;;;;;5092644;28;20216;-61
2022/01/05 10:58:15;;;;;;;7.53;1.83;;;;;;;;;;5092472;28;20042;-59
2022/01/05 11:00:41;;;;;;;7.60;1.67;;;;;;;;;;5092507;28;20028;-58
2022/01/05 11:03:25;;;;;;;12.10;1.58;;;;;;;;;;5092452;28;20389;-58
2022/01/05 11:06:02;;;;;;;10.95;1.95;;;;;;;;;;5092102;28;20028;-59
2022/01/05 11:08:47;;;;;;;8.30;1.75;;;;;;;;;;5092295;28;20357;-59
2022/01/05 11:11:31;;;;;;;14.90;2.20;;;;;;;;;;5092501;28;20066;-60
2022/01/05 11:13:57;;;;;;;9.70;1.70;;;;;;;;;;5092416;28;20028;-59
2022/01/05 11:16:26;;;;;;;12.25;1.80;;;;;;;;;;5092458;28;20028;-58
2022/01/05 11:19:29;;;;;;;8.20;2.00;;;;;;;;;;5092240;28;20125;-59
2022/01/05 11:21:57;;;;;;;9.70;1.67;;;;;;;;;;5092162;28;20033;-58
2022/01/05 11:24:24;;;;;;;12.30;2.08;;;;;;;;;;5092501;28;20469;-56
2022/01/05 11:26:51;;;;;;;6.00;1.60;;;;;;;;;;5092041;28;20466;-59
2022/01/05 11:29:17;;;;;;;6.20;1.60;;;;;;;;;;5092289;28;20077;-59
2022/01/05 11:31:44;;;;;;;10.10;3.05;;;;;;;;;;5092276;28;20378;-56
2022/01/05 11:34:10;;;;;;;7.35;1.90;;;;;;;;;;5092091;28;20038;-59
2022/01/05 11:36:36;;;;;;;11.02;2.20;;;;;;;;;;5091918;28;20119;-58
2022/01/05 11:39:02;;;;;;;7.63;2.20;;;;;;;;;;5074085;28;20032;-59
2022/01/05 11:41:29;;;;;;;12.02;2.00;;;;;;;;;;5092060;28;20032;-61
2022/01/05 11:43:54;;;;;;;9.80;1.70;;;;;;;;;;5092067;28;20069;-58
2022/01/05 11:46:21;;;;;;;7.50;2.22;;;;;;;;;;5073816;28;20043;-56
2022/01/05 11:49:03;;;;;;;5.25;1.92;;;;;;;;;;5073428;28;20020;-59
2022/01/05 11:51:48;;;;;;;9.95;2.05;;;;;;;;;;5095638;28;20145;-57
2022/01/05 11:54:21;;;;;;;10.88;1.52;;;;;;;;;;5095643;28;20359;-56
2022/01/05 11:56:55;;;;;;;8.52;1.60;;;;;;;;;;5095488;28;20027;-60
2022/01/05 11:59:38;;;;;;;6.82;1.50;;;;;;;;;;5093891;28;20055;-61
2022/01/05 12:02:18;;;;;;;7.00;1.67;;;;;;;;;;5088014;28;20059;-54
2022/01/05 12:05:09;;;;;;;7.57;1.60;;;;;;;;;;5090551;28;20356;-59
2022/01/05 12:07:45;;;;;;;10.77;1.90;;;;;;;;;;5090612;28;20039;-59
2022/01/05 12:10:23;;;;;;;15.57;2.50;;;;;;;;;;5092089;28;20085;-57
2022/01/05 12:13:03;;;;;;;7.93;2.25;;;;;;;;;;5094574;28;20028;-54
2022/01/05 12:15:53;;;;;;;7.93;1.83;;;;;;;;;;5093795;28;20420;-58
2022/01/05 12:18:28;;;;;;;7.43;1.65;;;;;;;;;;5090507;28;20386;-57
2022/01/05 12:20:55;;;;;;;8.48;1.75;;;;;;;;;;5083834;28;20082;-58
2022/01/05 12:23:24;;;;;;;4.15;1.40;;;;;;;;;;5091974;28;22003;-56
2022/01/05 12:26:07;;;;;;;4.43;1.40;;;;;;;;;;5091833;28;20024;-57
2022/01/05 12:28:38;;;;;;;11.10;2.03;;;;;;;;;;5090710;28;20429;-63
2022/01/05 12:31:04;;;;;;;7.68;1.88;;;;;;;;;;5073095;28;20433;-63
2022/01/05 12:33:44;;;;;;;13.10;2.00;;;;;;;;;;5090819;28;20020;-59
2022/01/05 12:36:11;;;;;;;9.48;2.10;;;;;;;;;;5087920;28;20367;-61
2022/01/05 12:38:47;;;;;;;5.28;1.60;;;;;;;;;;5082475;28;20032;-61
2022/01/05 12:41:29;;;;;;;8.30;1.92;;;;;;;;;;5092055;28;20038;-70
2022/01/05 12:43:56;;;;;;;10.43;2.00;;;;;;;;;;5075466;28;20036;-61
2022/01/05 12:46:35;;;;;;;9.38;1.73;;;;;;;;;;5084220;28;20500;-62
2022/01/05 12:49:04;;;;;;;10.93;2.03;;;;;;;;;;5094500;28;20084;-60
2022/01/05 12:51:38;;;;;;;7.72;2.05;;;;;;;;;;5094079;28;20120;-61
2022/01/05 12:54:20;;;;;;;9.23;2.00;;;;;;;;;;5093944;28;20086;-60
2022/01/05 12:56:49;;;;;;;12.60;2.03;;;;;;;;;;5092371;28;20024;-61
2022/01/05 12:59:36;;;;;;;10.13;2.03;;;;;;;;;;5089098;28;20073;-60
2022/01/05 13:02:25;;;;;;;5.47;1.75;;;;;;;;;;5092818;28;20089;-69
2022/01/05 13:04:53;;;;;;;7.22;1.80;;;;;;;;;;5091598;28;20107;-59
2022/01/05 13:07:19;;;;;;;7.85;1.80;;;;;;;;;;5092710;28;20428;-57
2022/01/05 13:09:47;;;;;;;5.50;1.73;;;;;;;;;;5088534;28;20031;-56
2022/01/05 13:12:16;;;;;;;9.35;2.47;;;;;;;;;;5093231;28;20444;-55
2022/01/05 13:14:55;;;;;;;6.15;1.60;;;;;;;;;;5091746;28;20103;-64
2022/01/05 13:17:23;;;;;;;8.63;2.20;;;;;;;;;;5079913;28;20043;-56
2022/01/05 13:19:58;;;;;;;11.20;1.90;;;;;;;;;;5086771;28;20059;-63
2022/01/05 13:22:42;;;;;;;14.20;2.15;;;;;;;;;;5087926;28;20493;-59
2022/01/05 13:25:22;;;;;;;12.82;2.05;;;;;;;;;;5090320;28;20121;-64
2022/01/05 13:28:00;;;;;;;7.38;1.75;;;;;;;;;;5092756;28;20031;-62
2022/01/05 13:30:28;;;;;;;12.70;2.47;;;;;;;;;;5091213;28;20504;-62
2022/01/05 13:33:05;;;;;;;15.00;2.05;;;;;;;;;;5092770;28;20039;-63
2022/01/05 13:35:40;;;;;;;8.07;2.30;;;;;;;;;;5093238;28;20036;-63
2022/01/05 13:38:14;;;;;;;7.68;2.05;;;;;;;;;;5089192;28;20039;-64
2022/01/05 13:40:42;;;;;;;11.30;2.47;;;;;;;;;;5075593;28;20035;-59
2022/01/05 13:43:13;;;;;;;11.40;2.10;;;;;;;;;;5081231;28;20655;-59
2022/01/05 13:45:45;;;;;;;7.05;2.03;;;;;;;;;;5085238;28;20028;-65
2022/01/05 13:48:14;;;;;;;7.47;2.22;;;;;;;;;;5085835;28;20032;-61
2022/01/05 13:50:47;;;;;;;5.75;1.90;;;;;;;;;;5090363;28;20096;-61
2022/01/05 13:53:13;;;;;;;12.05;2.80;;;;;;;;;;5085757;28;20024;-65
2022/01/05 13:55:42;;;;;;;15.45;2.67;;;;;;;;;;5079990;28;20107;-58
2022/01/05 13:58:29;;;;;;;10.45;2.60;;;;;;;;;;5091471;28;20084;-60
2022/01/05 14:01:08;;;;;;;8.60;2.30;;;;;;;;;;5086300;28;20041;-58
2022/01/05 14:03:38;;;;;;;8.63;2.60;;;;;;;;;;5084074;28;20028;-60
2022/01/05 14:06:05;;;;;;;14.00;3.38;;;;;;;;;;5074272;28;20031;-59
2022/01/05 14:08:38;;;;;;;11.73;2.50;;;;;;;;;;5092610;28;20052;-59
2022/01/05 14:11:08;;;;;;;7.03;2.38;;;;;;;;;;5092924;28;20385;-61
2022/01/05 14:13:47;;;;;;;8.25;2.80;;;;;;;;;;5092083;28;20394;-59
2022/01/05 14:16:35;;;;;;;7.53;3.20;;;;;;;;;;5092392;28;20028;-59
2022/01/05 14:19:11;;;;;;;5.97;2.38;;;;;;;;;;5080006;28;20033;-64
2022/01/05 14:21:39;;;;;;;10.40;2.88;;;;;;;;;;5076325;28;20420;-60
2022/01/05 14:24:09;;;;;;;6.65;2.75;;;;;;;;;;5086409;28;20028;-63
2022/01/05 14:26:37;;;;;;;8.38;2.70;;;;;;;;;;5076839;28;20374;-60
2022/01/05 14:29:04;;;;;;;9.85;2.40;;;;;;;;;;5065265;28;20028;-63
2022/01/05 14:31:39;;;;;;;9.63;2.35;;;;;;;;;;5082718;28;20024;-63
2022/01/05 14:34:16;;;;;;;6.88;2.42;;;;;;;;;;5079988;28;20580;-62
2022/01/05 14:36:44;;;;;;;9.23;2.95;;;;;;;;;;5075798;28;20059;-62
2022/01/05 14:39:14;;;;;;;9.23;2.83;;;;;;;;;;5092039;28;20066;-61
2022/01/05 14:41:42;;;;;;;8.95;3.10;;;;;;;;;;5079299;28;20077;-62
2022/01/05 14:44:18;;;;;;;9.73;2.55;;;;;;;;;;5079548;28;20111;-62
2022/01/05 14:46:50;;;;;;;9.13;2.95;;;;;;;;;;5085658;28;20039;-60
2022/01/05 14:49:18;;;;;;;12.80;4.10;;;;;;;;;;5078270;28;20281;-57